Time;durP1;ratioP1;P1;durP2;ratioP2;P2;SDS_P1;SDS_P2;PMS_P1;PMS_P2;Temp;Humidity;BMP_temperature;BMP_pressure;BME280_temperature;BME280_humidity;BME280_pressure;Samples;Min_cycle;Max_cycle;Signal;HPM_P1;HPM_P2
2023/04/21 00:00:13;;;;;;;18.95;9.48;;;;;;;;;;1027879;28;20570;-74
2023/04/21 00:00:44;;;;;;;22.35;11.55;;;;;;;;;;1027898;28;20033;-73
2023/04/21 00:01:15;;;;;;;26.85;12.38;;;;;;;;;;1028248;28;20506;-74
2023/04/21 00:01:46;;;;;;;18.45;11.32;;;;;;;;;;1028236;28;20030;-74
2023/04/21 00:02:16;;;;;;;36.63;12.88;;;;;;;;;;1032411;28;20022;-74
2023/04/21 00:02:48;;;;;;;20.80;13.07;;;;;;;;;;1027755;28;20023;-74
2023/04/21 00:03:20;;;;;;;30.17;10.32;;;;;;;;;;1027847;28;20030;-74
2023/04/21 00:03:51;;;;;;;24.70;10.32;;;;;;;;;;1028137;28;20018;-74
2023/04/21 00:04:22;;;;;;;20.75;12.40;;;;;;;;;;1028379;28;20023;-74
2023/04/21 00:04:55;;;;;;;30.00;11.15;;;;;;;;;;1031376;28;20022;-74
2023/04/21 00:05:25;;;;;;;20.00;11.93;;;;;;;;;;1032150;28;20053;-74
2023/04/21 00:05:57;;;;;;;17.92;10.02;;;;;;;;;;1032490;28;20018;-74
2023/04/21 00:06:30;;;;;;;19.73;11.23;;;;;;;;;;1032336;28;20022;-74
2023/04/21 00:07:02;;;;;;;22.92;10.57;;;;;;;;;;1032450;28;20101;-74
2023/04/21 00:07:33;;;;;;;27.40;11.85;;;;;;;;;;1031227;28;20536;-74
2023/04/21 00:08:03;;;;;;;21.00;12.27;;;;;;;;;;1032320;28;20084;-74
2023/04/21 00:08:39;;;;;;;15.20;9.15;;;;;;;;;;1032170;28;20117;-74
2023/04/21 00:09:10;;;;;;;19.30;9.77;;;;;;;;;;1032329;28;20030;-74
2023/04/21 00:09:40;;;;;;;14.85;9.98;;;;;;;;;;1032027;28;20085;-74
2023/04/21 00:10:11;;;;;;;33.30;14.63;;;;;;;;;;1032335;28;20044;-74
2023/04/21 00:10:41;;;;;;;31.77;11.02;;;;;;;;;;1032453;28;20287;-74
2023/04/21 00:11:13;;;;;;;25.35;10.52;;;;;;;;;;1032237;28;20033;-74
2023/04/21 00:11:44;;;;;;;17.48;11.32;;;;;;;;;;1032213;28;20109;-74
2023/04/21 00:12:14;;;;;;;24.13;11.68;;;;;;;;;;1027886;28;20030;-74
2023/04/21 00:12:45;;;;;;;22.92;10.55;;;;;;;;;;1028229;28;20126;-74
2023/04/21 00:13:15;;;;;;;16.98;9.68;;;;;;;;;;1027855;28;20023;-74
2023/04/21 00:13:46;;;;;;;14.70;10.05;;;;;;;;;;1027782;28;20474;-74
2023/04/21 00:14:16;;;;;;;17.80;8.45;;;;;;;;;;1032164;28;20030;-74
2023/04/21 00:14:47;;;;;;;24.45;9.80;;;;;;;;;;1031967;28;20537;-74
2023/04/21 00:15:17;;;;;;;37.72;10.52;;;;;;;;;;1032577;28;20617;-74
2023/04/21 00:15:48;;;;;;;12.98;7.57;;;;;;;;;;1032335;28;20018;-74
2023/04/21 00:16:18;;;;;;;22.48;12.30;;;;;;;;;;1032226;28;20450;-74
2023/04/21 00:16:51;;;;;;;20.20;8.48;;;;;;;;;;1031021;28;20022;-74
2023/04/21 00:17:21;;;;;;;24.13;10.25;;;;;;;;;;1032210;28;20326;-74
2023/04/21 00:17:52;;;;;;;15.60;10.00;;;;;;;;;;1032110;28;20394;-74
2023/04/21 00:18:22;;;;;;;11.55;7.50;;;;;;;;;;1032309;28;20053;-74
2023/04/21 00:18:53;;;;;;;27.08;9.20;;;;;;;;;;1032343;28;20113;-74
2023/04/21 00:19:23;;;;;;;14.60;9.75;;;;;;;;;;1032091;28;20015;-74
2023/04/21 00:19:54;;;;;;;27.70;8.48;;;;;;;;;;1027977;28;20030;-74
2023/04/21 00:20:27;;;;;;;23.08;13.00;;;;;;;;;;1027548;28;20018;-74
2023/04/21 00:20:58;;;;;;;21.02;10.68;;;;;;;;;;1028002;28;20068;-74
2023/04/21 00:21:28;;;;;;;30.70;8.75;;;;;;;;;;1027643;28;20082;-74
2023/04/21 00:22:00;;;;;;;18.75;7.47;;;;;;;;;;1028756;28;20033;-74
2023/04/21 00:22:30;;;;;;;16.55;6.97;;;;;;;;;;1032007;28;20025;-74
2023/04/21 00:23:01;;;;;;;22.02;8.02;;;;;;;;;;1032253;28;20021;-74
2023/04/21 00:23:31;;;;;;;15.63;8.57;;;;;;;;;;1031986;28;20123;-74
2023/04/21 00:24:02;;;;;;;37.33;10.88;;;;;;;;;;1027905;28;20038;-74
2023/04/21 00:24:32;;;;;;;11.68;8.50;;;;;;;;;;1028068;28;20475;-74
2023/04/21 00:25:03;;;;;;;12.23;6.65;;;;;;;;;;1027995;28;20081;-74
2023/04/21 00:25:34;;;;;;;9.70;7.45;;;;;;;;;;1027483;28;20033;-74
2023/04/21 00:26:04;;;;;;;26.17;9.27;;;;;;;;;;1027962;28;20026;-74
2023/04/21 00:26:35;;;;;;;15.13;7.05;;;;;;;;;;1028145;28;20037;-74
2023/04/21 00:27:05;;;;;;;27.35;9.15;;;;;;;;;;1022883;28;20038;-74
2023/04/21 00:27:36;;;;;;;19.02;8.68;;;;;;;;;;1027716;28;20034;-74
2023/04/21 00:28:06;;;;;;;8.85;7.03;;;;;;;;;;1028005;28;20026;-74
2023/04/21 00:28:37;;;;;;;9.52;7.70;;;;;;;;;;1028140;28;20026;-74
2023/04/21 00:29:07;;;;;;;16.77;11.52;;;;;;;;;;1032164;28;20029;-74
2023/04/21 00:29:39;;;;;;;10.73;7.32;;;;;;;;;;1032003;28;20036;-74
2023/04/21 00:30:10;;;;;;;14.82;6.40;;;;;;;;;;1027977;28;20446;-74
2023/04/21 00:30:40;;;;;;;33.38;8.13;;;;;;;;;;1027866;28;20109;-74
2023/04/21 00:31:11;;;;;;;9.90;6.60;;;;;;;;;;1028174;28;20027;-74
2023/04/21 00:31:41;;;;;;;9.35;7.60;;;;;;;;;;1027521;28;20467;-73
2023/04/21 00:32:12;;;;;;;12.80;7.13;;;;;;;;;;1027979;28;20035;-73
2023/04/21 00:32:42;;;;;;;5.50;4.90;;;;;;;;;;1027764;28;20031;-73
2023/04/21 00:33:13;;;;;;;17.70;8.52;;;;;;;;;;1027198;28;20114;-73
2023/04/21 00:33:43;;;;;;;10.80;7.22;;;;;;;;;;1027787;28;20023;-73
2023/04/21 00:34:14;;;;;;;7.93;7.10;;;;;;;;;;1028245;28;20018;-74
2023/04/21 00:34:44;;;;;;;10.05;5.88;;;;;;;;;;1030999;28;20058;-74
2023/04/21 00:35:15;;;;;;;10.15;4.78;;;;;;;;;;1032160;28;20491;-74
2023/04/21 00:35:45;;;;;;;14.65;6.72;;;;;;;;;;1032579;28;20018;-74
2023/04/21 00:36:16;;;;;;;7.57;5.28;;;;;;;;;;1032230;28;20085;-74
2023/04/21 00:36:46;;;;;;;8.85;5.82;;;;;;;;;;1031939;28;20041;-74
2023/04/21 00:37:16;;;;;;;6.32;5.00;;;;;;;;;;1032193;28;20025;-74
2023/04/21 00:37:49;;;;;;;7.28;6.00;;;;;;;;;;1027686;28;20077;-73
2023/04/21 00:38:19;;;;;;;16.05;7.30;;;;;;;;;;1027902;28;20047;-73
2023/04/21 00:38:49;;;;;;;12.25;6.13;;;;;;;;;;1027630;28;20027;-73
2023/04/21 00:39:20;;;;;;;10.27;5.43;;;;;;;;;;1027680;28;20109;-73
2023/04/21 00:39:51;;;;;;;10.10;6.40;;;;;;;;;;1028298;28;20029;-74
2023/04/21 00:40:21;;;;;;;8.48;5.30;;;;;;;;;;1027887;28;20519;-74
2023/04/21 00:40:51;;;;;;;11.40;7.45;;;;;;;;;;1026766;28;20031;-74
2023/04/21 00:41:22;;;;;;;8.13;4.22;;;;;;;;;;1031972;28;20076;-74
2023/04/21 00:41:52;;;;;;;8.05;5.38;;;;;;;;;;1028137;28;20026;-74
2023/04/21 00:42:23;;;;;;;11.63;4.80;;;;;;;;;;1028134;28;20031;-73
2023/04/21 00:42:54;;;;;;;5.75;5.05;;;;;;;;;;1027981;28;20023;-73
2023/04/21 00:43:24;;;;;;;14.18;6.80;;;;;;;;;;1027636;28;20030;-73
2023/04/21 00:44:01;;;;;;;6.95;4.22;;;;;;;;;;1032351;28;20030;-73
2023/04/21 00:44:31;;;;;;;8.30;3.15;;;;;;;;;;1032042;28;20022;-73
2023/04/21 00:45:03;;;;;;;11.00;6.90;;;;;;;;;;1032175;28;20084;-74
2023/04/21 00:45:33;;;;;;;7.90;5.88;;;;;;;;;;1031820;28;20022;-74
2023/04/21 00:46:04;;;;;;;10.77;4.47;;;;;;;;;;1032181;28;20471;-74
2023/04/21 00:46:35;;;;;;;10.43;4.95;;;;;;;;;;1032187;28;20371;-74
2023/04/21 00:47:05;;;;;;;6.97;4.38;;;;;;;;;;1032243;28;20073;-74
2023/04/21 00:47:36;;;;;;;20.40;4.25;;;;;;;;;;1031820;28;20068;-74
2023/04/21 00:48:06;;;;;;;8.52;4.50;;;;;;;;;;1032378;28;20085;-74
2023/04/21 00:48:37;;;;;;;7.40;4.97;;;;;;;;;;1028013;28;20015;-74
2023/04/21 00:49:07;;;;;;;19.48;5.10;;;;;;;;;;1028289;28;20097;-73
2023/04/21 00:49:37;;;;;;;15.85;5.88;;;;;;;;;;1027647;28;20105;-73
2023/04/21 00:50:08;;;;;;;9.75;6.72;;;;;;;;;;1027839;28;20402;-73
2023/04/21 00:50:39;;;;;;;8.35;4.50;;;;;;;;;;1031968;28;20025;-73
2023/04/21 00:51:10;;;;;;;9.88;5.18;;;;;;;;;;1032739;28;20034;-73
2023/04/21 00:51:40;;;;;;;3.45;3.15;;;;;;;;;;1031831;28;20565;-73
2023/04/21 00:52:11;;;;;;;10.73;4.10;;;;;;;;;;1033131;28;20050;-73
2023/04/21 00:52:43;;;;;;;16.48;6.22;;;;;;;;;;1033572;28;20534;-73
2023/04/21 00:53:13;;;;;;;6.60;3.25;;;;;;;;;;1033451;28;20018;-73
2023/04/21 00:53:44;;;;;;;6.22;5.28;;;;;;;;;;1028921;28;20542;-73
2023/04/21 00:54:16;;;;;;;11.60;7.72;;;;;;;;;;1027986;28;20171;-73
2023/04/21 00:54:46;;;;;;;6.85;3.78;;;;;;;;;;1027637;28;20058;-73
2023/04/21 00:55:17;;;;;;;5.55;4.60;;;;;;;;;;1027997;28;20125;-73
2023/04/21 00:55:49;;;;;;;11.02;4.88;;;;;;;;;;1032632;28;20049;-73
2023/04/21 00:56:20;;;;;;;12.38;4.72;;;;;;;;;;1032169;28;20386;-73
2023/04/21 00:56:51;;;;;;;10.15;4.90;;;;;;;;;;1031213;28;20041;-73
2023/04/21 00:57:22;;;;;;;14.55;7.05;;;;;;;;;;1032088;28;20026;-73
2023/04/21 00:57:52;;;;;;;9.70;5.38;;;;;;;;;;1032506;28;20484;-73
2023/04/21 00:58:23;;;;;;;8.73;5.47;;;;;;;;;;1027636;28;20026;-73
2023/04/21 00:58:53;;;;;;;8.02;5.72;;;;;;;;;;1027885;28;20025;-73
2023/04/21 00:59:24;;;;;;;7.13;5.35;;;;;;;;;;1027704;28;20139;-73
2023/04/21 00:59:54;;;;;;;8.75;4.55;;;;;;;;;;1028124;28;20022;-73
2023/04/21 01:00:25;;;;;;;7.35;4.25;;;;;;;;;;1031666;28;20058;-73
2023/04/21 01:00:56;;;;;;;9.15;4.38;;;;;;;;;;1027785;28;20467;-73
2023/04/21 01:01:30;;;;;;;15.25;7.57;;;;;;;;;;1027540;28;20113;-73
2023/04/21 01:02:00;;;;;;;7.22;4.07;;;;;;;;;;1027065;28;20114;-73
2023/04/21 01:02:31;;;;;;;5.60;4.50;;;;;;;;;;1026709;28;20079;-73
2023/04/21 01:03:03;;;;;;;9.05;5.25;;;;;;;;;;1027849;28;20078;-73
2023/04/21 01:03:34;;;;;;;5.38;3.13;;;;;;;;;;1023690;28;20026;-73
2023/04/21 01:04:05;;;;;;;7.18;4.65;;;;;;;;;;1027870;28;20572;-73
2023/04/21 01:04:38;;;;;;;8.98;4.30;;;;;;;;;;1027945;28;20069;-73
2023/04/21 01:05:09;;;;;;;13.63;4.43;;;;;;;;;;1028393;28;20033;-73
2023/04/21 01:05:40;;;;;;;5.28;3.08;;;;;;;;;;1027438;28;20514;-73
2023/04/21 01:06:10;;;;;;;12.20;6.28;;;;;;;;;;1027898;28;20113;-73
2023/04/21 01:06:41;;;;;;;6.85;3.53;;;;;;;;;;1028101;28;20015;-73
2023/04/21 01:07:12;;;;;;;22.83;4.47;;;;;;;;;;1028332;28;20069;-73
2023/04/21 01:07:42;;;;;;;16.20;6.65;;;;;;;;;;1031857;28;20042;-73
2023/04/21 01:08:13;;;;;;;6.57;3.50;;;;;;;;;;1026672;28;20019;-73
2023/04/21 01:08:47;;;;;;;7.88;4.65;;;;;;;;;;1027637;28;20046;-73
2023/04/21 01:09:17;;;;;;;11.70;4.15;;;;;;;;;;1025479;28;20078;-73
2023/04/21 01:09:48;;;;;;;12.35;4.95;;;;;;;;;;1021287;29;20530;-73
2023/04/21 01:10:18;;;;;;;12.20;4.72;;;;;;;;;;1023818;28;20090;-73
2023/04/21 01:10:49;;;;;;;12.05;6.55;;;;;;;;;;1023662;28;20076;-73
2023/04/21 01:11:20;;;;;;;9.25;5.68;;;;;;;;;;1028157;28;20127;-73
2023/04/21 01:12:01;;;;;;;8.95;4.85;;;;;;;;;;1031264;28;20122;-73
2023/04/21 01:12:31;;;;;;;4.10;2.97;;;;;;;;;;1031934;28;20116;-73
2023/04/21 01:13:02;;;;;;;12.05;5.50;;;;;;;;;;1027688;28;20553;-73
2023/04/21 01:13:32;;;;;;;11.40;5.03;;;;;;;;;;1028036;28;20117;-74
2023/04/21 01:14:03;;;;;;;6.75;3.83;;;;;;;;;;1027698;28;20447;-74
2023/04/21 01:14:35;;;;;;;8.18;3.38;;;;;;;;;;1027447;28;20087;-74
2023/04/21 01:15:05;;;;;;;17.95;7.25;;;;;;;;;;1027772;28;20029;-74
2023/04/21 01:15:36;;;;;;;8.90;4.95;;;;;;;;;;1027412;28;20045;-74
2023/04/21 01:16:07;;;;;;;4.03;3.03;;;;;;;;;;1024144;28;20187;-74
2023/04/21 01:16:38;;;;;;;6.45;3.88;;;;;;;;;;1027601;28;20033;-74
2023/04/21 01:17:09;;;;;;;6.60;4.55;;;;;;;;;;1027891;28;20019;-74
2023/04/21 01:17:40;;;;;;;11.90;6.03;;;;;;;;;;1026725;28;20364;-74
2023/04/21 01:18:11;;;;;;;9.50;5.18;;;;;;;;;;1028282;28;20019;-74
2023/04/21 01:18:42;;;;;;;10.98;6.70;;;;;;;;;;1027516;28;20498;-73
2023/04/21 01:19:12;;;;;;;9.35;5.10;;;;;;;;;;1025506;28;20026;-73
2023/04/21 01:19:43;;;;;;;7.70;4.70;;;;;;;;;;1027466;28;20030;-73
2023/04/21 01:20:14;;;;;;;5.85;4.20;;;;;;;;;;1028022;28;20117;-73
2023/04/21 01:20:45;;;;;;;5.35;2.97;;;;;;;;;;1027546;28;20031;-73
2023/04/21 01:21:15;;;;;;;13.82;6.40;;;;;;;;;;1027797;28;20014;-73
2023/04/21 01:21:46;;;;;;;7.40;5.03;;;;;;;;;;1027745;28;20022;-74
2023/04/21 01:22:17;;;;;;;4.68;3.83;;;;;;;;;;1028045;28;20030;-74
2023/04/21 01:22:48;;;;;;;7.85;4.35;;;;;;;;;;1027539;28;20019;-74
2023/04/21 01:23:19;;;;;;;9.02;5.30;;;;;;;;;;1027641;28;20031;-74
2023/04/21 01:23:50;;;;;;;6.47;4.18;;;;;;;;;;1027895;28;20039;-74
2023/04/21 01:24:20;;;;;;;10.00;3.80;;;;;;;;;;1032014;28;20041;-74
2023/04/21 01:24:51;;;;;;;3.50;2.55;;;;;;;;;;1032306;28;20032;-74
2023/04/21 01:25:24;;;;;;;9.65;3.63;;;;;;;;;;1027426;28;20174;-74
2023/04/21 01:25:55;;;;;;;13.10;4.47;;;;;;;;;;1027721;28;20144;-74
2023/04/21 01:26:25;;;;;;;7.13;3.63;;;;;;;;;;1027290;28;20025;-74
2023/04/21 01:26:56;;;;;;;8.02;4.90;;;;;;;;;;1027523;28;20026;-73
2023/04/21 01:27:27;;;;;;;7.35;5.30;;;;;;;;;;1027510;28;20470;-73
2023/04/21 01:27:57;;;;;;;8.63;4.72;;;;;;;;;;1027836;28;20018;-73
2023/04/21 01:28:28;;;;;;;6.22;2.72;;;;;;;;;;1031771;28;20025;-73
2023/04/21 01:28:58;;;;;;;9.50;3.35;;;;;;;;;;1032159;28;20030;-73
2023/04/21 01:29:33;;;;;;;7.38;4.90;;;;;;;;;;1032549;28;20032;-73
2023/04/21 01:30:06;;;;;;;9.75;3.00;;;;;;;;;;1031577;28;20083;-73
2023/04/21 01:30:36;;;;;;;6.20;3.88;;;;;;;;;;1027354;28;20113;-73
2023/04/21 01:31:06;;;;;;;11.13;3.30;;;;;;;;;;1027816;28;20021;-74
2023/04/21 01:31:37;;;;;;;10.38;5.15;;;;;;;;;;1027708;28;20033;-74
2023/04/21 01:32:09;;;;;;;4.70;3.45;;;;;;;;;;1027922;28;20019;-74
2023/04/21 01:32:40;;;;;;;5.80;3.15;;;;;;;;;;1030744;28;20528;-74
2023/04/21 01:33:10;;;;;;;9.13;4.10;;;;;;;;;;1032007;28;20030;-74
2023/04/21 01:33:41;;;;;;;10.27;4.43;;;;;;;;;;1031873;28;20026;-74
2023/04/21 01:34:11;;;;;;;5.70;3.33;;;;;;;;;;1030874;28;20026;-74
2023/04/21 01:34:42;;;;;;;8.30;5.20;;;;;;;;;;1031835;28;20026;-74
2023/04/21 01:35:13;;;;;;;6.60;4.03;;;;;;;;;;1032000;28;20026;-74
2023/04/21 01:35:43;;;;;;;2.05;1.83;;;;;;;;;;1031739;28;20445;-74
2023/04/21 01:36:14;;;;;;;8.38;5.00;;;;;;;;;;1032571;28;20029;-74
2023/04/21 01:36:44;;;;;;;8.38;3.75;;;;;;;;;;1031796;28;20433;-74
2023/04/21 01:37:16;;;;;;;4.15;2.88;;;;;;;;;;1031043;28;20080;-74
2023/04/21 01:37:46;;;;;;;6.75;3.60;;;;;;;;;;1031799;28;20442;-74
2023/04/21 01:38:17;;;;;;;7.68;5.25;;;;;;;;;;1032072;28;20018;-74
2023/04/21 01:38:48;;;;;;;8.93;5.07;;;;;;;;;;1031280;28;20031;-74
2023/04/21 01:39:18;;;;;;;9.63;6.00;;;;;;;;;;1031874;28;20026;-74
2023/04/21 01:39:51;;;;;;;9.00;4.00;;;;;;;;;;1031821;28;20117;-74
2023/04/21 01:40:21;;;;;;;8.70;4.28;;;;;;;;;;1031872;28;20429;-74
2023/04/21 01:40:52;;;;;;;10.93;5.20;;;;;;;;;;1031023;28;20053;-74
2023/04/21 01:41:23;;;;;;;5.78;2.70;;;;;;;;;;1031416;28;21588;-74
2023/04/21 01:41:56;;;;;;;4.93;2.65;;;;;;;;;;1032294;28;20392;-74
2023/04/21 01:42:27;;;;;;;16.63;3.85;;;;;;;;;;1031690;28;20029;-74
2023/04/21 01:42:59;;;;;;;9.75;3.38;;;;;;;;;;1032508;28;20018;-74
2023/04/21 01:43:29;;;;;;;7.50;4.32;;;;;;;;;;1030711;28;20014;-74
2023/04/21 01:44:00;;;;;;;3.97;2.65;;;;;;;;;;1032021;28;20030;-74
2023/04/21 01:44:31;;;;;;;9.18;4.68;;;;;;;;;;1031779;28;20026;-74
2023/04/21 01:45:01;;;;;;;8.85;4.78;;;;;;;;;;1030872;28;20030;-74
2023/04/21 01:45:32;;;;;;;9.18;4.10;;;;;;;;;;1032215;28;20028;-74
2023/04/21 01:46:03;;;;;;;3.72;2.00;;;;;;;;;;1032054;28;20493;-74
2023/04/21 01:46:34;;;;;;;6.07;3.20;;;;;;;;;;1032062;28;20476;-74
2023/04/21 01:47:05;;;;;;;7.25;3.63;;;;;;;;;;1032191;28;20093;-74
2023/04/21 01:47:35;;;;;;;7.10;3.78;;;;;;;;;;1032192;28;20090;-74
2023/04/21 01:48:06;;;;;;;7.53;3.72;;;;;;;;;;1032038;28;20022;-74
2023/04/21 01:48:37;;;;;;;10.25;4.35;;;;;;;;;;1027328;28;20475;-74
2023/04/21 01:49:07;;;;;;;9.10;4.25;;;;;;;;;;1027283;28;20493;-74
2023/04/21 01:49:37;;;;;;;6.88;4.63;;;;;;;;;;1023369;29;20081;-74
2023/04/21 01:50:08;;;;;;;6.03;4.00;;;;;;;;;;1024184;28;20034;-74
2023/04/21 01:50:39;;;;;;;9.55;5.20;;;;;;;;;;1027490;28;20546;-74
2023/04/21 01:51:09;;;;;;;8.90;4.18;;;;;;;;;;1027800;28;20026;-74
2023/04/21 01:51:40;;;;;;;6.63;3.78;;;;;;;;;;1031527;28;20030;-74
2023/04/21 01:52:10;;;;;;;3.20;2.25;;;;;;;;;;1027807;28;20018;-74
2023/04/21 01:52:41;;;;;;;7.68;4.82;;;;;;;;;;1027416;28;20037;-74
2023/04/21 01:53:12;;;;;;;3.65;2.40;;;;;;;;;;1027760;28;20591;-74
2023/04/21 01:53:42;;;;;;;8.18;3.42;;;;;;;;;;1027440;28;20031;-74
2023/04/21 01:54:13;;;;;;;4.88;3.88;;;;;;;;;;1032592;28;20442;-74
2023/04/21 01:54:43;;;;;;;3.80;2.90;;;;;;;;;;1031725;28;20062;-74
2023/04/21 01:55:14;;;;;;;22.20;5.22;;;;;;;;;;1031863;28;20487;-74
2023/04/21 01:55:44;;;;;;;6.80;5.00;;;;;;;;;;1031836;28;20026;-74
2023/04/21 01:56:15;;;;;;;5.07;3.47;;;;;;;;;;1032153;28;20030;-74
2023/04/21 01:56:45;;;;;;;5.78;4.30;;;;;;;;;;1027803;28;20475;-74
2023/04/21 01:57:16;;;;;;;11.95;4.95;;;;;;;;;;1027631;28;20018;-74
2023/04/21 01:57:46;;;;;;;6.72;2.63;;;;;;;;;;1027412;28;20031;-74
2023/04/21 01:58:17;;;;;;;4.40;2.85;;;;;;;;;;1027807;28;20065;-74
2023/04/21 01:58:47;;;;;;;4.95;3.90;;;;;;;;;;1032010;28;20153;-74
2023/04/21 01:59:18;;;;;;;7.47;4.47;;;;;;;;;;1031832;28;20022;-74
2023/04/21 01:59:48;;;;;;;8.07;3.63;;;;;;;;;;1027220;28;20034;-74
2023/04/21 02:00:19;;;;;;;12.93;5.40;;;;;;;;;;1027622;28;20105;-74
2023/04/21 02:00:49;;;;;;;3.60;2.58;;;;;;;;;;1027577;28;20019;-74
2023/04/21 02:01:20;;;;;;;7.40;4.22;;;;;;;;;;1027742;28;20065;-74
2023/04/21 02:01:50;;;;;;;12.15;3.85;;;;;;;;;;1027461;28;20023;-74
2023/04/21 02:02:21;;;;;;;7.90;4.85;;;;;;;;;;1027350;28;20037;-74
2023/04/21 02:02:51;;;;;;;4.57;3.20;;;;;;;;;;1027758;28;20430;-74
2023/04/21 02:03:22;;;;;;;7.38;2.95;;;;;;;;;;1027537;28;20121;-74
2023/04/21 02:03:52;;;;;;;4.32;3.45;;;;;;;;;;1027122;28;20023;-74
2023/04/21 02:04:22;;;;;;;6.75;2.80;;;;;;;;;;1031962;28;20029;-74
2023/04/21 02:04:53;;;;;;;9.43;3.25;;;;;;;;;;1032106;28;20100;-74
2023/04/21 02:05:23;;;;;;;4.78;2.88;;;;;;;;;;1032286;28;20510;-74
2023/04/21 02:05:54;;;;;;;11.13;6.68;;;;;;;;;;1032016;28;20019;-74
2023/04/21 02:06:25;;;;;;;6.45;3.80;;;;;;;;;;1030662;28;20036;-74
2023/04/21 02:06:55;;;;;;;5.18;2.20;;;;;;;;;;1027492;28;20019;-74
2023/04/21 02:07:26;;;;;;;6.95;3.92;;;;;;;;;;1027791;28;20069;-74
2023/04/21 02:07:56;;;;;;;9.95;4.57;;;;;;;;;;1027801;28;20431;-74
2023/04/21 02:08:27;;;;;;;10.60;5.47;;;;;;;;;;1027405;28;20025;-74
2023/04/21 02:08:57;;;;;;;5.00;3.53;;;;;;;;;;1027546;28;20018;-74
2023/04/21 02:09:27;;;;;;;8.45;3.22;;;;;;;;;;1027421;28;20046;-73
2023/04/21 02:09:58;;;;;;;8.18;5.32;;;;;;;;;;1028562;28;20098;-73
2023/04/21 02:10:28;;;;;;;8.45;3.97;;;;;;;;;;1027400;28;20026;-73
2023/04/21 02:11:00;;;;;;;8.27;2.60;;;;;;;;;;1027056;28;20026;-73
2023/04/21 02:11:30;;;;;;;6.72;4.15;;;;;;;;;;1027067;28;20026;-73
2023/04/21 02:12:02;;;;;;;8.55;2.88;;;;;;;;;;1027892;28;20088;-73
2023/04/21 02:12:32;;;;;;;10.73;3.70;;;;;;;;;;1027317;28;20126;-73
2023/04/21 02:13:03;;;;;;;7.60;3.58;;;;;;;;;;1027407;28;20518;-73
2023/04/21 02:13:33;;;;;;;8.75;3.65;;;;;;;;;;1027259;28;20027;-73
2023/04/21 02:14:04;;;;;;;8.18;3.35;;;;;;;;;;1027388;28;20026;-73
2023/04/21 02:14:35;;;;;;;11.98;5.47;;;;;;;;;;1027873;28;20030;-74
2023/04/21 02:15:06;;;;;;;6.60;3.33;;;;;;;;;;1027586;28;20052;-74
2023/04/21 02:15:37;;;;;;;8.60;6.03;;;;;;;;;;1027592;28;20059;-74
2023/04/21 02:16:07;;;;;;;8.73;3.83;;;;;;;;;;1027385;28;20163;-73
2023/04/21 02:16:38;;;;;;;6.15;2.92;;;;;;;;;;1027803;28;20450;-73
2023/04/21 02:17:08;;;;;;;8.50;4.20;;;;;;;;;;1027659;28;20019;-73
2023/04/21 02:17:38;;;;;;;5.60;3.05;;;;;;;;;;1027365;28;20516;-74
2023/04/21 02:18:09;;;;;;;5.25;2.97;;;;;;;;;;1031889;28;20456;-74
2023/04/21 02:18:40;;;;;;;9.35;3.67;;;;;;;;;;1031210;28;20027;-74
2023/04/21 02:19:10;;;;;;;6.35;3.15;;;;;;;;;;1032517;28;20038;-74
2023/04/21 02:19:41;;;;;;;5.20;3.17;;;;;;;;;;1031568;28;20022;-74
2023/04/21 02:20:12;;;;;;;21.73;4.68;;;;;;;;;;1031999;28;20130;-74
2023/04/21 02:20:42;;;;;;;8.80;3.70;;;;;;;;;;1031711;28;20033;-74
2023/04/21 02:21:13;;;;;;;20.50;3.65;;;;;;;;;;1032156;28;20015;-73
2023/04/21 02:21:43;;;;;;;11.63;4.90;;;;;;;;;;1031630;28;20034;-73
2023/04/21 02:22:14;;;;;;;14.80;4.13;;;;;;;;;;1027453;28;20027;-73
2023/04/21 02:22:44;;;;;;;8.50;4.55;;;;;;;;;;1027467;28;20114;-73
2023/04/21 02:23:15;;;;;;;11.15;4.25;;;;;;;;;;1028410;28;20019;-74
2023/04/21 02:23:45;;;;;;;5.97;3.78;;;;;;;;;;1027452;28;20023;-74
2023/04/21 02:24:16;;;;;;;3.75;3.40;;;;;;;;;;1031960;28;20026;-74
2023/04/21 02:24:46;;;;;;;5.95;3.72;;;;;;;;;;1031728;28;20022;-74
2023/04/21 02:25:17;;;;;;;9.82;4.22;;;;;;;;;;1027790;28;20466;-74
2023/04/21 02:25:48;;;;;;;15.10;3.55;;;;;;;;;;1026959;28;20031;-73
2023/04/21 02:26:18;;;;;;;5.28;3.47;;;;;;;;;;1025524;28;20026;-73
2023/04/21 02:26:49;;;;;;;5.78;3.55;;;;;;;;;;1025017;28;20027;-73
2023/04/21 02:27:19;;;;;;;3.25;2.50;;;;;;;;;;1027262;28;20019;-73
2023/04/21 02:27:50;;;;;;;5.28;3.00;;;;;;;;;;1027982;28;20442;-73
2023/04/21 02:28:20;;;;;;;7.55;3.67;;;;;;;;;;1030741;28;20019;-73
2023/04/21 02:28:51;;;;;;;7.38;3.75;;;;;;;;;;1031719;28;20031;-73
2023/04/21 02:29:21;;;;;;;6.10;3.88;;;;;;;;;;1031798;28;20086;-73
2023/04/21 02:29:51;;;;;;;7.60;3.88;;;;;;;;;;1032056;28;20093;-73
2023/04/21 02:30:22;;;;;;;5.15;3.13;;;;;;;;;;1032089;28;20509;-73
2023/04/21 02:30:52;;;;;;;8.70;4.68;;;;;;;;;;1032003;28;20076;-73
2023/04/21 02:31:23;;;;;;;6.07;2.70;;;;;;;;;;1031566;28;20085;-73
2023/04/21 02:31:53;;;;;;;9.07;4.05;;;;;;;;;;1031933;28;20023;-73
2023/04/21 02:32:24;;;;;;;10.85;4.15;;;;;;;;;;1032315;28;20014;-73
2023/04/21 02:32:54;;;;;;;7.05;3.78;;;;;;;;;;1027386;28;20050;-73
2023/04/21 02:33:25;;;;;;;17.10;4.40;;;;;;;;;;1027076;28;20463;-73
2023/04/21 02:33:55;;;;;;;9.00;4.03;;;;;;;;;;1027664;28;20078;-73
2023/04/21 02:34:26;;;;;;;6.47;3.22;;;;;;;;;;1027725;28;20035;-73
2023/04/21 02:34:56;;;;;;;5.25;3.20;;;;;;;;;;1031774;28;20096;-73
2023/04/21 02:35:27;;;;;;;10.43;3.95;;;;;;;;;;1031642;28;20390;-73
2023/04/21 02:35:57;;;;;;;9.10;2.42;;;;;;;;;;1031725;28;20033;-73
2023/04/21 02:36:28;;;;;;;4.30;2.95;;;;;;;;;;1031602;28;20026;-73
2023/04/21 02:36:59;;;;;;;7.28;4.35;;;;;;;;;;1032679;28;20026;-73
2023/04/21 02:37:30;;;;;;;8.50;4.78;;;;;;;;;;1031023;28;20023;-73
2023/04/21 02:38:06;;;;;;;6.47;2.65;;;;;;;;;;1031429;28;20038;-73
2023/04/21 02:38:36;;;;;;;10.15;4.97;;;;;;;;;;1027107;28;20125;-73
2023/04/21 02:39:07;;;;;;;4.38;2.70;;;;;;;;;;1026693;28;20022;-73
2023/04/21 02:39:37;;;;;;;6.65;3.78;;;;;;;;;;1024332;28;20038;-73
2023/04/21 02:40:08;;;;;;;3.95;3.38;;;;;;;;;;1024945;28;20519;-73
2023/04/21 02:40:39;;;;;;;5.97;4.22;;;;;;;;;;1027566;28;20042;-73
2023/04/21 02:41:10;;;;;;;4.25;2.53;;;;;;;;;;1028209;28;20022;-73
2023/04/21 02:41:40;;;;;;;7.65;3.80;;;;;;;;;;1027671;28;20018;-73
2023/04/21 02:42:11;;;;;;;19.35;5.30;;;;;;;;;;1031953;28;20025;-73
2023/04/21 02:42:41;;;;;;;7.95;5.00;;;;;;;;;;1027257;28;20031;-73
2023/04/21 02:43:15;;;;;;;7.78;4.78;;;;;;;;;;1027806;28;20114;-73
2023/04/21 02:43:47;;;;;;;11.90;5.10;;;;;;;;;;1026242;28;20078;-73
2023/04/21 02:44:17;;;;;;;4.47;3.22;;;;;;;;;;1027418;28;20029;-73
2023/04/21 02:44:48;;;;;;;8.98;4.22;;;;;;;;;;1027355;28;20443;-73
2023/04/21 02:45:18;;;;;;;7.43;3.88;;;;;;;;;;1027441;28;20034;-73
2023/04/21 02:45:49;;;;;;;4.75;3.38;;;;;;;;;;1028273;28;19999;-73
2023/04/21 02:46:19;;;;;;;5.20;2.88;;;;;;;;;;1031909;28;20033;-73
2023/04/21 02:46:50;;;;;;;6.70;4.07;;;;;;;;;;1031820;28;20466;-73
2023/04/21 02:47:20;;;;;;;13.77;4.90;;;;;;;;;;1027300;28;20026;-73
2023/04/21 02:47:50;;;;;;;9.40;3.65;;;;;;;;;;1027856;28;20086;-73
2023/04/21 02:48:24;;;;;;;12.25;4.85;;;;;;;;;;1027694;28;20045;-73
2023/04/21 02:48:54;;;;;;;7.97;4.38;;;;;;;;;;1027035;28;20058;-73
2023/04/21 02:49:25;;;;;;;10.07;4.18;;;;;;;;;;1027225;28;20023;-73
2023/04/21 02:49:55;;;;;;;5.35;3.35;;;;;;;;;;1027621;28;20058;-74
2023/04/21 02:50:26;;;;;;;16.52;5.68;;;;;;;;;;1028971;28;20370;-74
2023/04/21 02:50:56;;;;;;;4.47;3.95;;;;;;;;;;1028625;28;20399;-74
2023/04/21 02:51:27;;;;;;;5.75;4.38;;;;;;;;;;1028046;28;20022;-74
2023/04/21 02:51:57;;;;;;;6.70;2.80;;;;;;;;;;1028433;28;20065;-74
2023/04/21 02:52:28;;;;;;;6.68;3.78;;;;;;;;;;1028226;28;20061;-74
2023/04/21 02:52:58;;;;;;;8.15;4.15;;;;;;;;;;1028451;28;20463;-74
2023/04/21 02:53:29;;;;;;;9.90;4.88;;;;;;;;;;1024776;28;20026;-74
2023/04/21 02:54:00;;;;;;;7.72;4.78;;;;;;;;;;1028268;28;20058;-74
2023/04/21 02:54:30;;;;;;;11.60;4.53;;;;;;;;;;1028904;28;20079;-74
2023/04/21 02:55:02;;;;;;;15.05;5.55;;;;;;;;;;1028348;28;20077;-74
2023/04/21 02:55:32;;;;;;;11.70;4.78;;;;;;;;;;1032529;28;20452;-75
2023/04/21 02:56:03;;;;;;;9.65;4.05;;;;;;;;;;1032712;28;20054;-74
2023/04/21 02:56:34;;;;;;;7.43;4.20;;;;;;;;;;1028760;28;20091;-74
2023/04/21 02:57:04;;;;;;;11.02;3.65;;;;;;;;;;1028552;28;20422;-74
2023/04/21 02:57:35;;;;;;;8.77;3.75;;;;;;;;;;1027989;28;20146;-74
2023/04/21 02:58:06;;;;;;;9.80;3.75;;;;;;;;;;1028501;28;20023;-74
2023/04/21 02:58:36;;;;;;;11.77;4.22;;;;;;;;;;1032596;28;20045;-74
2023/04/21 02:59:07;;;;;;;8.13;4.70;;;;;;;;;;1033051;28;20078;-74
2023/04/21 02:59:37;;;;;;;8.98;4.18;;;;;;;;;;1032472;28;20028;-74
2023/04/21 03:00:10;;;;;;;14.88;4.43;;;;;;;;;;1032596;28;20112;-74
2023/04/21 03:00:41;;;;;;;6.57;3.67;;;;;;;;;;1032268;28;20049;-74
2023/04/21 03:01:11;;;;;;;15.85;5.47;;;;;;;;;;1033360;28;20027;-74
2023/04/21 03:01:42;;;;;;;5.53;3.40;;;;;;;;;;1032344;28;20022;-74
2023/04/21 03:02:12;;;;;;;10.82;4.32;;;;;;;;;;1032679;28;20025;-74
2023/04/21 03:02:43;;;;;;;9.00;4.57;;;;;;;;;;1027888;28;20547;-74
2023/04/21 03:03:16;;;;;;;5.97;3.35;;;;;;;;;;1028811;28;20481;-74